Time;durP1;ratioP1;P1;durP2;ratioP2;P2;SDS_P1;SDS_P2;PMS_P1;PMS_P2;Temp;Humidity;BMP_temperature;BMP_pressure;BME280_temperature;BME280_humidity;BME280_pressure;Samples;Min_cycle;Max_cycle;Signal;HPM_P1;HPM_P2
2022/08/26 00:03:57;;;;;;;1.70;1.20;;;;;;;;;;12600234;28;20048;-74
2022/08/26 00:09:59;;;;;;;1.45;1.35;;;;;;;;;;12600074;28;20036;-74
2022/08/26 00:16:01;;;;;;;1.40;1.30;;;;;;;;;;12598834;28;20036;-74
2022/08/26 00:22:03;;;;;;;1.25;1.15;;;;;;;;;;12581748;28;20040;-74
2022/08/26 00:28:06;;;;;;;1.20;1.10;;;;;;;;;;12598692;28;20049;-74
2022/08/26 00:34:08;;;;;;;1.40;1.30;;;;;;;;;;12599114;28;20390;-74
2022/08/26 00:40:12;;;;;;;1.33;1.20;;;;;;;;;;12580222;28;20028;-74
2022/08/26 00:46:18;;;;;;;1.60;1.50;;;;;;;;;;12598319;28;20048;-73
2022/08/26 00:52:21;;;;;;;1.40;1.30;;;;;;;;;;12598085;28;20490;-74
2022/08/26 00:58:24;;;;;;;1.88;1.35;;;;;;;;;;12597985;28;20059;-74
2022/08/26 01:04:26;;;;;;;1.50;1.25;;;;;;;;;;12579223;28;20413;-75
2022/08/26 01:10:30;;;;;;;1.83;1.38;;;;;;;;;;12579091;28;20028;-74
2022/08/26 01:16:32;;;;;;;1.40;1.30;;;;;;;;;;12579231;28;20477;-74
2022/08/26 01:22:43;;;;;;;2.63;1.20;;;;;;;;;;12596390;28;20028;-74
2022/08/26 01:28:45;;;;;;;2.33;1.50;;;;;;;;;;12578264;28;20064;-74
2022/08/26 01:34:47;;;;;;;3.28;1.40;;;;;;;;;;12595891;28;20399;-75
2022/08/26 01:40:49;;;;;;;3.60;1.20;;;;;;;;;;12577861;28;20401;-74
2022/08/26 01:46:52;;;;;;;2.72;1.38;;;;;;;;;;12595064;28;20398;-74
2022/08/26 01:52:54;;;;;;;1.50;1.40;;;;;;;;;;12560379;28;20035;-74
2022/08/26 01:58:59;;;;;;;2.15;1.50;;;;;;;;;;12560986;28;20067;-74
2022/08/26 02:05:03;;;;;;;1.25;1.15;;;;;;;;;;12576514;28;20044;-74
2022/08/26 02:11:05;;;;;;;1.92;1.25;;;;;;;;;;12594578;28;20032;-74
2022/08/26 02:17:08;;;;;;;2.15;1.83;;;;;;;;;;12593988;28;20377;-74
2022/08/26 02:23:10;;;;;;;3.92;1.73;;;;;;;;;;12559330;28;20043;-74
2022/08/26 02:29:22;;;;;;;1.35;1.25;;;;;;;;;;12595338;28;20049;-74
2022/08/26 02:35:24;;;;;;;1.70;1.58;;;;;;;;;;12577613;28;20044;-74
2022/08/26 02:41:25;;;;;;;;;;;;;;;;;;12575692;28;20041;-75
2022/08/26 02:47:27;;;;;;;1.30;1.20;;;;;;;;;;12575625;28;19992;-75
2022/08/26 02:53:29;;;;;;;;;;;;;;;;;;12575721;28;20040;-75
2022/08/26 02:59:31;;;;;;;1.63;1.33;;;;;;;;;;12576037;28;19909;-75
2022/08/26 03:05:32;;;;;;;;;;;;;;;;;;12593318;28;20311;-74
2022/08/26 03:11:34;;;;;;;2.03;1.93;;;;;;;;;;12574923;28;19909;-74
2022/08/26 03:17:36;;;;;;;1.65;1.52;;;;;;;;;;12593046;28;20041;-75
2022/08/26 03:23:40;;;;;;;3.22;2.20;;;;;;;;;;12592631;28;20033;-74
2022/08/26 03:36:02;;;;;;;1.70;1.60;;;;;;;;;;12592281;28;20033;-74
2022/08/26 03:42:05;;;;;;;2.00;1.83;;;;;;;;;;12574738;28;20505;-75
2022/08/26 03:48:07;;;;;;;3.80;1.98;;;;;;;;;;12591821;28;20048;-74
2022/08/26 03:54:08;;;;;;;2.38;1.88;;;;;;;;;;12598309;28;20036;-74
2022/08/26 04:00:11;;;;;;;;;;;;;;;;;;12601809;28;20036;-74
2022/08/26 04:06:32;;;;;;;;;;;;;;;;;;12585714;28;20444;-74
2022/08/26 04:12:36;;;;;;;1.90;1.80;;;;;;;;;;12582217;28;20278;-74
2022/08/26 04:18:38;;;;;;;2.20;1.88;;;;;;;;;;12581606;28;20036;-74
2022/08/26 04:24:39;;;;;;;1.38;1.27;;;;;;;;;;12564798;28;20044;-74
2022/08/26 04:30:41;;;;;;;2.33;1.80;;;;;;;;;;12598733;28;20056;-74
2022/08/26 04:36:57;;;;;;;2.15;1.90;;;;;;;;;;12598697;28;20104;-74
2022/08/26 04:42:59;;;;;;;;;;;;;;;;;;12598941;28;20055;-74
2022/08/26 04:49:01;;;;;;;2.33;1.63;;;;;;;;;;12598028;28;19916;-74
2022/08/26 04:55:03;;;;;;;2.13;1.83;;;;;;;;;;12580001;28;20036;-74
2022/08/26 05:01:05;;;;;;;1.70;1.60;;;;;;;;;;12579658;28;20494;-74
2022/08/26 05:07:08;;;;;;;1.95;1.85;;;;;;;;;;12579393;28;20055;-74
2022/08/26 05:13:10;;;;;;;1.70;1.60;;;;;;;;;;12597171;28;20037;-73
2022/08/26 05:19:12;;;;;;;1.63;1.52;;;;;;;;;;12581658;28;20028;-73
2022/08/26 05:25:14;;;;;;;1.42;1.33;;;;;;;;;;12562538;28;20067;-74
2022/08/26 05:31:17;;;;;;;2.15;2.05;;;;;;;;;;12578203;28;20636;-73
2022/08/26 05:37:19;;;;;;;1.73;1.63;;;;;;;;;;12578107;28;20029;-73
2022/08/26 05:43:21;;;;;;;2.38;2.17;;;;;;;;;;12595348;28;20513;-73
2022/08/26 05:49:23;;;;;;;1.92;1.80;;;;;;;;;;12595288;28;20036;-74
2022/08/26 05:55:24;;;;;;;;;;;;;;;;;;12597219;28;20031;-73
2022/08/26 06:01:27;;;;;;;2.73;2.03;;;;;;;;;;12577708;28;19919;-73
2022/08/26 06:13:49;;;;;;;2.50;2.30;;;;;;;;;;12593948;28;20055;-73
2022/08/26 06:19:50;;;;;;;3.22;2.33;;;;;;;;;;12595193;28;20496;-74
2022/08/26 06:25:52;;;;;;;2.45;2.10;;;;;;;;;;12575888;28;20071;-74
2022/08/26 06:31:54;;;;;;;;;;;;;;;;;;12594066;28;20494;-74
2022/08/26 06:37:55;;;;;;;3.10;2.80;;;;;;;;;;12576068;28;19935;-74
2022/08/26 06:43:57;;;;;;;2.65;2.45;;;;;;;;;;12575492;28;20037;-74
2022/08/26 06:49:59;;;;;;;3.85;3.45;;;;;;;;;;12575445;28;20047;-73
2022/08/26 06:56:02;;;;;;;3.65;3.35;;;;;;;;;;12575075;28;20036;-74
2022/08/26 07:02:04;;;;;;;4.00;3.60;;;;;;;;;;12558633;28;20032;-74
2022/08/26 07:08:06;;;;;;;3.83;3.47;;;;;;;;;;12575054;28;20067;-73
2022/08/26 07:14:08;;;;;;;4.93;3.13;;;;;;;;;;12592913;28;20031;-74
2022/08/26 07:20:10;;;;;;;3.08;2.85;;;;;;;;;;12574872;28;20029;-73
2022/08/26 07:26:15;;;;;;;4.10;2.75;;;;;;;;;;12578466;28;20036;-73
2022/08/26 07:32:19;;;;;;;2.88;2.65;;;;;;;;;;12601755;28;20153;-73
2022/08/26 07:38:21;;;;;;;3.65;2.67;;;;;;;;;;12583194;28;20040;-73
2022/08/26 07:44:23;;;;;;;3.53;2.83;;;;;;;;;;12583271;28;20036;-74
2022/08/26 07:50:24;;;;;;;3.10;2.60;;;;;;;;;;12583322;28;20028;-73
2022/08/26 07:56:26;;;;;;;4.30;2.67;;;;;;;;;;12600873;28;20047;-73
2022/08/26 08:02:29;;;;;;;3.28;2.97;;;;;;;;;;12582999;28;20477;-73
2022/08/26 08:08:31;;;;;;;2.72;2.35;;;;;;;;;;12600046;28;20043;-73
2022/08/26 08:14:35;;;;;;;3.03;2.60;;;;;;;;;;12600049;28;20040;-74
2022/08/26 08:20:37;;;;;;;2.70;2.50;;;;;;;;;;12581663;28;20063;-74
2022/08/26 08:26:39;;;;;;;2.92;2.67;;;;;;;;;;12599452;28;20048;-74
2022/08/26 08:32:42;;;;;;;2.65;2.45;;;;;;;;;;12581773;28;20060;-74
2022/08/26 08:38:44;;;;;;;2.55;2.35;;;;;;;;;;12580339;28;20028;-75
2022/08/26 08:44:49;;;;;;;2.88;2.33;;;;;;;;;;12598667;28;20041;-73
2022/08/26 08:50:52;;;;;;;2.25;2.05;;;;;;;;;;12580145;28;20036;-73
2022/08/26 08:56:57;;;;;;;3.03;2.30;;;;;;;;;;12597680;28;20035;-74
2022/08/26 09:03:21;;;;;;;3.88;3.00;;;;;;;;;;12597441;28;20413;-73
2022/08/26 09:09:27;;;;;;;2.67;2.20;;;;;;;;;;12566847;28;20052;-73
2022/08/26 09:15:35;;;;;;;3.20;2.33;;;;;;;;;;12579389;28;20029;-73
2022/08/26 09:21:37;;;;;;;5.35;2.95;;;;;;;;;;12578781;28;20036;-74
2022/08/26 09:27:39;;;;;;;2.85;2.63;;;;;;;;;;12596337;28;20078;-74
2022/08/26 09:33:41;;;;;;;3.15;2.80;;;;;;;;;;12596024;28;20048;-74
2022/08/26 09:39:43;;;;;;;4.25;2.95;;;;;;;;;;12595741;28;20486;-75
2022/08/26 09:45:55;;;;;;;4.00;3.00;;;;;;;;;;12577402;28;20044;-74
2022/08/26 09:52:05;;;;;;;3.42;2.83;;;;;;;;;;12594517;28;20525;-74
2022/08/26 09:58:08;;;;;;;4.30;3.90;;;;;;;;;;12577498;28;20032;-75
2022/08/26 10:04:13;;;;;;;4.25;3.65;;;;;;;;;;12594523;28;20045;-75
2022/08/26 10:10:18;;;;;;;4.03;2.97;;;;;;;;;;12576527;28;20055;-75
2022/08/26 10:16:46;;;;;;;7.68;4.55;;;;;;;;;;12594167;28;20032;-75
2022/08/26 10:22:47;;;;;;;7.10;4.45;;;;;;;;;;12556336;28;20052;-75
2022/08/26 10:28:52;;;;;;;5.72;3.50;;;;;;;;;;12575915;28;20520;-76
2022/08/26 10:34:54;;;;;;;5.22;3.78;;;;;;;;;;12575967;28;20048;-75
2022/08/26 10:41:00;;;;;;;4.70;3.80;;;;;;;;;;12593439;28;20382;-75
2022/08/26 10:47:32;;;;;;;6.10;3.97;;;;;;;;;;12593557;28;20397;-75
2022/08/26 10:53:34;;;;;;;8.55;4.28;;;;;;;;;;12555378;28;20040;-75
2022/08/26 10:59:45;;;;;;;4.60;3.83;;;;;;;;;;12577209;28;20031;-74
2022/08/26 11:05:46;;;;;;;;;;;;;;;;;;12585553;28;20044;-75
2022/08/26 11:11:48;;;;;;;;;;;;;;;;;;12585142;28;19912;-75
2022/08/26 11:17:50;;;;;;;6.35;3.58;;;;;;;;;;12584540;28;19908;-75
2022/08/26 11:23:51;;;;;;;5.30;3.58;;;;;;;;;;12596924;28;20036;-75
2022/08/26 11:29:56;;;;;;;3.40;3.10;;;;;;;;;;12567474;28;20052;-75
2022/08/26 11:35:58;;;;;;;3.85;3.22;;;;;;;;;;12601283;28;20505;-74
2022/08/26 11:42:14;;;;;;;6.85;3.95;;;;;;;;;;12601424;28;20025;-76
2022/08/26 11:48:16;;;;;;;4.28;3.33;;;;;;;;;;12583430;28;20037;-75
2022/08/26 11:54:22;;;;;;;3.67;2.97;;;;;;;;;;12566595;28;20032;-75
2022/08/26 12:00:26;;;;;;;4.88;3.13;;;;;;;;;;12601271;28;20055;-75
2022/08/26 12:06:31;;;;;;;3.72;3.15;;;;;;;;;;12600193;28;20047;-75
2022/08/26 12:12:34;;;;;;;3.83;3.10;;;;;;;;;;12564617;28;20040;-75
2022/08/26 12:18:37;;;;;;;2.55;2.08;;;;;;;;;;12582061;28;20047;-75
2022/08/26 12:24:59;;;;;;;3.67;2.50;;;;;;;;;;12599273;28;20047;-75
2022/08/26 12:31:01;;;;;;;3.60;2.80;;;;;;;;;;12599346;28;20501;-75
2022/08/26 12:37:03;;;;;;;2.88;2.60;;;;;;;;;;12564375;28;20044;-75
2022/08/26 12:43:05;;;;;;;3.10;2.28;;;;;;;;;;12581014;28;20041;-75
2022/08/26 12:49:07;;;;;;;2.67;1.90;;;;;;;;;;12580753;28;20051;-75
2022/08/26 12:55:23;;;;;;;4.53;3.33;;;;;;;;;;12598071;28;20037;-75
2022/08/26 13:01:25;;;;;;;2.80;2.53;;;;;;;;;;12598662;28;20040;-75
2022/08/26 13:07:27;;;;;;;3.95;2.03;;;;;;;;;;12597426;28;20048;-75
2022/08/26 13:13:28;;;;;;;2.45;2.10;;;;;;;;;;12597196;28;20040;-75
2022/08/26 13:19:30;;;;;;;3.85;2.30;;;;;;;;;;12578801;28;20363;-75
2022/08/26 13:25:31;;;;;;;3.25;2.22;;;;;;;;;;12596155;28;20036;-75
2022/08/26 13:31:35;;;;;;;2.67;2.03;;;;;;;;;;12578153;28;20052;-74
2022/08/26 13:37:36;;;;;;;3.50;2.65;;;;;;;;;;12596108;28;20040;-74
2022/08/26 13:43:38;;;;;;;4.88;3.00;;;;;;;;;;12595828;28;20044;-74
2022/08/26 13:49:40;;;;;;;4.00;3.22;;;;;;;;;;12577667;28;20036;-73
2022/08/26 13:55:43;;;;;;;3.97;2.65;;;;;;;;;;12578234;28;20418;-74
2022/08/26 14:01:45;;;;;;;6.15;2.72;;;;;;;;;;12596049;28;20028;-75
2022/08/26 14:07:47;;;;;;;4.03;2.78;;;;;;;;;;12576936;28;20059;-74
2022/08/26 14:13:49;;;;;;;2.58;1.92;;;;;;;;;;12594345;28;20032;-74
2022/08/26 14:19:52;;;;;;;2.40;1.98;;;;;;;;;;12576384;28;20040;-75
2022/08/26 14:25:54;;;;;;;2.90;2.20;;;;;;;;;;12560022;28;20470;-75
2022/08/26 14:31:57;;;;;;;2.13;1.92;;;;;;;;;;12594067;28;20405;-74
2022/08/26 14:37:59;;;;;;;2.90;2.53;;;;;;;;;;12593060;28;20028;-74
2022/08/26 14:44:05;;;;;;;2.38;2.08;;;;;;;;;;12593659;28;20040;-75
2022/08/26 14:50:07;;;;;;;3.42;2.45;;;;;;;;;;12593412;28;20417;-75
2022/08/26 14:56:09;;;;;;;3.05;2.30;;;;;;;;;;12593303;28;20385;-74
2022/08/26 15:02:12;;;;;;;2.88;2.20;;;;;;;;;;12594454;28;20036;-76
2022/08/26 15:08:14;;;;;;;4.47;3.03;;;;;;;;;;12592881;28;20040;-76
2022/08/26 15:14:17;;;;;;;2.90;2.45;;;;;;;;;;12574950;28;20037;-75
2022/08/26 15:20:19;;;;;;;3.90;2.83;;;;;;;;;;12574388;28;20035;-75
2022/08/26 15:26:21;;;;;;;2.92;2.50;;;;;;;;;;12592539;28;20604;-74
2022/08/26 15:32:23;;;;;;;4.03;2.70;;;;;;;;;;12558806;28;20057;-76
2022/08/26 15:38:27;;;;;;;2.65;2.38;;;;;;;;;;12592094;28;20490;-74
2022/08/26 15:44:29;;;;;;;4.20;3.50;;;;;;;;;;12574180;28;20035;-76
2022/08/26 15:50:32;;;;;;;3.35;3.03;;;;;;;;;;12566484;28;20136;-75
2022/08/26 15:56:35;;;;;;;4.68;2.50;;;;;;;;;;12566853;28;20036;-75
2022/08/26 16:02:37;;;;;;;5.13;2.70;;;;;;;;;;12566190;28;20055;-76
2022/08/26 16:08:39;;;;;;;2.90;2.50;;;;;;;;;;12600223;28;20045;-74
2022/08/26 16:14:41;;;;;;;2.50;2.30;;;;;;;;;;12599885;28;20048;-75
2022/08/26 16:20:49;;;;;;;3.67;2.42;;;;;;;;;;12549389;28;20040;-75
2022/08/26 16:26:50;;;;;;;2.63;2.22;;;;;;;;;;12599672;28;20478;-76
2022/08/26 16:32:54;;;;;;;2.72;2.10;;;;;;;;;;12581867;28;20061;-75
2022/08/26 16:38:57;;;;;;;2.47;2.28;;;;;;;;;;12581178;28;20394;-75
2022/08/26 16:44:59;;;;;;;2.50;2.30;;;;;;;;;;12561927;28;20032;-76
2022/08/26 16:51:01;;;;;;;3.00;2.70;;;;;;;;;;12580167;28;20037;-75
2022/08/26 16:57:03;;;;;;;2.72;2.50;;;;;;;;;;12597877;28;20033;-73
2022/08/26 17:03:06;;;;;;;2.85;2.55;;;;;;;;;;12597744;28;20040;-77
2022/08/26 17:09:08;;;;;;;3.05;2.50;;;;;;;;;;12577673;28;20059;-75
2022/08/26 17:15:10;;;;;;;4.00;2.83;;;;;;;;;;12579689;28;20032;-75
2022/08/26 17:21:13;;;;;;;3.10;2.53;;;;;;;;;;12596777;28;20394;-75
2022/08/26 17:27:15;;;;;;;3.10;2.80;;;;;;;;;;12596292;28;20497;-76
2022/08/26 17:33:16;;;;;;;4.20;2.58;;;;;;;;;;12595049;28;20053;-75
2022/08/26 17:39:18;;;;;;;3.17;2.88;;;;;;;;;;12575591;28;20375;-76
2022/08/26 17:45:20;;;;;;;3.10;2.80;;;;;;;;;;12575408;28;20040;-76
2022/08/26 17:51:23;;;;;;;3.10;2.58;;;;;;;;;;12575707;28;20039;-76
2022/08/26 17:57:26;;;;;;;3.58;2.83;;;;;;;;;;12560902;28;20033;-75
2022/08/26 18:03:28;;;;;;;4.28;3.38;;;;;;;;;;12594777;28;20040;-76
2022/08/26 18:09:31;;;;;;;2.83;2.60;;;;;;;;;;12593584;28;20198;-75
2022/08/26 18:15:33;;;;;;;3.83;3.42;;;;;;;;;;12576736;28;20477;-75
2022/08/26 18:21:35;;;;;;;3.55;3.25;;;;;;;;;;12576386;28;20035;-76
2022/08/26 18:27:37;;;;;;;3.75;2.90;;;;;;;;;;12593666;28;20045;-75
2022/08/26 18:33:40;;;;;;;3.58;3.28;;;;;;;;;;12575956;28;20056;-74
2022/08/26 18:39:41;;;;;;;3.45;3.10;;;;;;;;;;12593678;28;20043;-76
2022/08/26 18:45:43;;;;;;;4.18;3.42;;;;;;;;;;12575497;28;20045;-75
2022/08/26 18:51:45;;;;;;;4.15;3.40;;;;;;;;;;12592875;28;20017;-75
2022/08/26 18:57:47;;;;;;;5.00;4.20;;;;;;;;;;12593343;28;20037;-75
2022/08/26 19:03:49;;;;;;;6.38;4.65;;;;;;;;;;12575189;28;20043;-75
2022/08/26 19:09:50;;;;;;;4.35;3.92;;;;;;;;;;12592691;28;20044;-75
2022/08/26 19:15:52;;;;;;;6.50;4.60;;;;;;;;;;12590930;28;20390;-75
2022/08/26 19:21:54;;;;;;;4.43;2.83;;;;;;;;;;12595557;28;20029;-75
2022/08/26 19:27:56;;;;;;;4.85;4.15;;;;;;;;;;12584075;28;20040;-75
2022/08/26 19:33:58;;;;;;;4.35;3.90;;;;;;;;;;12584369;28;20067;-75
2022/08/26 19:40:00;;;;;;;5.22;4.70;;;;;;;;;;12583453;28;20040;-75
2022/08/26 19:46:10;;;;;;;5.22;3.92;;;;;;;;;;12601207;28;20040;-75
2022/08/26 19:52:12;;;;;;;3.90;3.60;;;;;;;;;;12600903;28;20036;-75
2022/08/26 19:58:14;;;;;;;3.88;3.55;;;;;;;;;;12600908;28;20033;-75
2022/08/26 20:04:17;;;;;;;5.32;4.80;;;;;;;;;;12582724;28;20032;-75
2022/08/26 20:10:20;;;;;;;5.20;4.75;;;;;;;;;;12582609;28;20044;-75
2022/08/26 20:16:22;;;;;;;5.30;4.80;;;;;;;;;;12581907;28;20036;-75
2022/08/26 20:22:25;;;;;;;5.82;5.28;;;;;;;;;;12582192;28;20025;-75
2022/08/26 20:28:27;;;;;;;6.88;5.32;;;;;;;;;;12599481;28;20418;-75
2022/08/26 20:34:28;;;;;;;8.38;5.20;;;;;;;;;;12582328;28;20037;-75
2022/08/26 20:40:32;;;;;;;6.35;5.72;;;;;;;;;;12600425;28;20385;-75
2022/08/26 20:46:33;;;;;;;6.85;4.68;;;;;;;;;;12581298;28;20409;-75
2022/08/26 20:52:35;;;;;;;7.28;5.05;;;;;;;;;;12599262;28;20059;-75
2022/08/26 20:58:38;;;;;;;7.57;5.57;;;;;;;;;;12563719;28;20441;-76
2022/08/26 21:04:40;;;;;;;6.45;5.25;;;;;;;;;;12579991;28;20036;-75
2022/08/26 21:10:42;;;;;;;5.55;4.90;;;;;;;;;;12597155;28;20420;-76
2022/08/26 21:16:44;;;;;;;6.72;4.82;;;;;;;;;;12562456;28;20033;-76
2022/08/26 21:22:46;;;;;;;4.53;4.13;;;;;;;;;;12597576;28;20043;-75
2022/08/26 21:28:48;;;;;;;6.13;3.88;;;;;;;;;;12596529;28;20421;-75
2022/08/26 21:34:53;;;;;;;4.03;3.60;;;;;;;;;;12596241;28;20033;-76
2022/08/26 21:40:57;;;;;;;3.97;3.60;;;;;;;;;;12595851;28;20039;-76
2022/08/26 21:46:59;;;;;;;4.13;3.72;;;;;;;;;;12577816;28;20052;-76
2022/08/26 21:53:01;;;;;;;3.60;3.00;;;;;;;;;;12577547;28;20039;-75
2022/08/26 21:59:02;;;;;;;3.40;3.10;;;;;;;;;;12595442;28;20024;-75
2022/08/26 22:05:04;;;;;;;3.20;2.90;;;;;;;;;;12594880;28;20036;-75
2022/08/26 22:11:08;;;;;;;3.35;3.05;;;;;;;;;;12594903;28;20504;-75
2022/08/26 22:17:09;;;;;;;4.05;3.67;;;;;;;;;;12577165;28;20065;-75
2022/08/26 22:23:11;;;;;;;5.85;3.88;;;;;;;;;;12559622;28;20032;-76
2022/08/26 22:29:13;;;;;;;2.88;2.47;;;;;;;;;;12576077;28;20419;-75
2022/08/26 22:35:16;;;;;;;3.08;2.85;;;;;;;;;;12575867;28;20036;-75
2022/08/26 22:41:18;;;;;;;5.10;3.20;;;;;;;;;;12593855;28;20483;-74
2022/08/26 22:47:19;;;;;;;3.92;3.00;;;;;;;;;;12575653;28;20037;-75
2022/08/26 22:53:21;;;;;;;3.15;2.85;;;;;;;;;;12593481;28;20397;-74
2022/08/26 22:59:23;;;;;;;3.60;3.30;;;;;;;;;;12583814;28;20028;-75
2022/08/26 23:05:26;;;;;;;3.50;2.90;;;;;;;;;;12586266;28;20040;-75
2022/08/26 23:11:28;;;;;;;4.40;3.15;;;;;;;;;;12585065;28;20047;-74
2022/08/26 23:17:30;;;;;;;3.22;2.55;;;;;;;;;;12602811;28;20028;-74
2022/08/26 23:23:32;;;;;;;3.90;2.95;;;;;;;;;;12584556;28;20032;-75
2022/08/26 23:29:35;;;;;;;3.53;2.60;;;;;;;;;;12602244;28;20055;-74
2022/08/26 23:35:37;;;;;;;2.75;2.55;;;;;;;;;;12601953;28;20379;-75
2022/08/26 23:41:38;;;;;;;3.47;2.80;;;;;;;;;;12601668;28;20067;-75
2022/08/26 23:47:40;;;;;;;3.40;3.10;;;;;;;;;;12601199;28;20049;-75
2022/08/26 23:53:42;;;;;;;4.15;3.25;;;;;;;;;;12583282;28;20044;-75
2022/08/26 23:59:44;;;;;;;3.30;3.00;;;;;;;;;;12601492;28;20039;-74
